Bravo Supporter — ZDJY7 — position and weather

sailwx.info

Track history (hours):
 
Tides and Currents Weather Stations Pressure Air Temp Water Temp Dewpoint Dewpoint Depression Visibility Wind Speed Wind Dir Waves Ship Positions

Bravo Supporter

Last reported at 2018-Jun-01 20:19 UTC. Time now 2018-Jun-21 16:28 UTC.
Position N 62°47' E 005°31'.
Warning: this ship's position is 19 days out of date.

Length 56 m; draft 4.3 m.

Type: Other ship. MMSI: 236578000.

Date/timePositionNaut miles runAvg speedWind from/ knotsBaromVisibWave heightAir tempDewpointWater temp
2018-Jun-01 20:19N 62°47' E 005°31'310.2
2018-Jun-01 20:00N 62°44' E 005°33'510.2
2018-Jun-01 19:30N 62°39' E 005°35'510.0
2018-Jun-01 19:00N 62°34' E 005°37'5 9.9
2018-Jun-01 18:30N 62°30' E 005°43'510.2
2018-Jun-01 18:00N 62°27' E 005°52'510.5
2018-Jun-01 17:30N 62°27' E 006°04'3 5.4
2018-Jun-01 17:00N 62°28' E 006°09'0 0.5
2018-Jun-01 16:31N 62°28' E 006°09'0 0.0
2018-Jun-01 16:00N 62°28' E 006°09'0 0.0
2018-Jun-01 15:31N 62°28' E 006°09'0 0.0
2018-Jun-01 15:01N 62°28' E 006°09'0 0.0
2018-Jun-01 14:30N 62°28' E 006°09'0 0.0
2018-Jun-01 14:01N 62°28' E 006°09'0 0.0
2018-Jun-01 13:30N 62°28' E 006°09'0 0.0
2018-Jun-01 13:00N 62°28' E 006°09'0 0.0
2018-Jun-01 12:31N 62°28' E 006°09'0 0.0
2018-Jun-01 12:00N 62°28' E 006°09'0 0.0
2018-Jun-01 11:31N 62°28' E 006°09'0 0.0
2018-Jun-01 11:00N 62°28' E 006°09'0 0.0
2018-Jun-01 10:30N 62°28' E 006°09'0 0.0
2018-Jun-01 10:01N 62°28' E 006°09'0 0.0
2018-Jun-01 09:30N 62°28' E 006°09'0 0.0
2018-Jun-01 09:00N 62°28' E 006°09'0 0.0
2018-Jun-01 08:30N 62°28' E 006°09'0 0.0
2018-Jun-01 08:00N 62°28' E 006°09'0 0.0
2018-Jun-01 07:30N 62°28' E 006°09'0 0.0
2018-Jun-01 07:00N 62°28' E 006°09'0 0.0
2018-Jun-01 06:30N 62°28' E 006°09'0 0.0
2018-Jun-01 06:00N 62°28' E 006°09'0 0.0
2018-Jun-01 05:31N 62°28' E 006°09'0 0.0
2018-Jun-01 05:00N 62°28' E 006°09'0 0.0
2018-Jun-01 04:30N 62°28' E 006°09'0 0.0
2018-Jun-01 04:00N 62°28' E 006°09'0 0.0
2018-Jun-01 03:30N 62°28' E 006°09'0 0.0
2018-Jun-01 03:00N 62°28' E 006°09'0 0.0
2018-Jun-01 02:30N 62°28' E 006°09'0 0.0
2018-Jun-01 02:00N 62°28' E 006°09'0 0.0
2018-Jun-01 01:30N 62°28' E 006°09'0 0.0
2018-Jun-01 01:00N 62°28' E 006°09'0 0.0
2018-Jun-01 00:30N 62°28' E 006°09'0 0.0
2018-Jun-01 00:00N 62°28' E 006°09'0 0.0
2018-May-31 23:30N 62°28' E 006°09'0 0.0
2018-May-31 23:00N 62°28' E 006°09'0 0.0
2018-May-31 22:30N 62°28' E 006°09'0 0.0
2018-May-31 22:00N 62°28' E 006°09'0 0.9
2018-May-31 21:30N 62°28' E 006°10'4 7.1
2018-May-31 21:00N 62°27' E 006°03'5 9.6
2018-May-31 20:30N 62°28' E 005°52'5 9.6
2018-May-31 20:00N 62°30' E 005°44'5 9.7
2018-May-31 19:30N 62°34' E 005°36'5 9.8
2018-May-31 19:00N 62°38' E 005°31'5 9.4
2018-May-31 18:30N 62°42' E 005°26'4 0.2
2018-May-30 20:23N 62°46' E 005°27'4 9.6
2018-May-30 20:00N 62°42' E 005°30'5 9.6
2018-May-30 19:30N 62°38' E 005°34'5 9.6
2018-May-30 19:00N 62°33' E 005°37'5 9.6
2018-May-30 18:30N 62°30' E 005°45'510.0
2018-May-30 18:00N 62°27' E 005°53'510.3
2018-May-30 17:30N 62°27' E 006°05'2 4.4
2018-May-30 17:01N 62°28' E 006°09'0 0.3
2018-May-30 16:30N 62°28' E 006°09'0 0.0
2018-May-30 16:00N 62°28' E 006°09'0 0.0
2018-May-30 15:30N 62°28' E 006°09'0 0.0
2018-May-30 15:00N 62°28' E 006°09'0 0.0
2018-May-30 14:30N 62°28' E 006°09'0 0.0
2018-May-30 13:59N 62°28' E 006°09'0 0.0
2018-May-30 13:31N 62°28' E 006°09'0 0.0
2018-May-30 13:01N 62°28' E 006°09'0 0.0
2018-May-30 12:30N 62°28' E 006°09'0 0.0
2018-May-30 12:00N 62°28' E 006°09'0 0.0
2018-May-30 11:30N 62°28' E 006°09'0 0.0
2018-May-30 11:01N 62°28' E 006°09'0 0.0
2018-May-30 10:30N 62°28' E 006°09'0 0.0
2018-May-30 10:00N 62°28' E 006°09'0 0.0
2018-May-30 09:31N 62°28' E 006°09'0 0.0
2018-May-30 09:00N 62°28' E 006°09'0 0.0
2018-May-30 08:31N 62°28' E 006°09'0 0.0
2018-May-30 08:00N 62°28' E 006°09'0 0.0
2018-May-30 07:30N 62°28' E 006°09'1 1.9
2018-May-30 07:00N 62°27' E 006°10'5 9.4
2018-May-30 06:30N 62°27' E 006°00'5 9.0
2018-May-30 06:00N 62°28' E 005°51'5 9.4
2018-May-30 05:30N 62°30' E 005°42'4 8.4
2018-May-30 04:59N 62°31' E 005°33'4 8.6
2018-May-30 04:30N 62°29' E 005°25'4 8.7
2018-May-30 04:00N 62°26' E 005°18'4 8.7
2018-May-30 03:30N 62°24' E 005°10'4 8.3
2018-May-30 03:00N 62°22' E 005°02'4 8.2
2018-May-30 02:30N 62°19' E 004°55'4 7.7
2018-May-30 01:59N 62°17' E 004°48'4 7.2
2018-May-30 01:29N 62°16' E 004°41'6 6.6
2018-May-30 00:37N 62°12' E 004°31'1 7.2
2018-May-30 00:29N 62°11' E 004°30'211 8.7
2018-May-29 00:20N 58°41' E 004°51'12 9.4
2018-May-28 23:03N 58°32' E 005°06'0 8.5
2018-May-28 23:00N 58°31' E 005°07'10 9.8
2018-May-28 22:02N 58°24' E 005°19'010.0
2018-May-28 22:00N 58°24' E 005°19'510.2
2018-May-28 21:28N 58°20' E 005°27'510.2
2018-May-28 20:59N 58°17' E 005°34'510.4
2018-May-28 20:30N 58°14' E 005°41'510.5
2018-May-28 20:00N 58°11' E 005°49'510.5
2018-May-28 19:30N 58°08' E 005°57'510.4
2018-May-28 19:00N 58°04' E 006°04'510.3
2018-May-28 18:30N 58°01' E 006°12'510.7
2018-May-28 18:00N 57°57' E 006°19'611.1
2018-May-28 17:30N 57°54' E 006°27'610.9
2018-May-28 16:58N 57°51' E 006°36'511.0
2018-May-28 16:30N 57°50' E 006°46'510.8
2018-May-28 16:00N 57°49' E 006°56'510.7
2018-May-28 15:30N 57°49' E 007°06'510.9
2018-May-28 15:00N 57°48' E 007°16'611.0
2018-May-28 14:29N 57°48' E 007°27'511.0
2018-May-28 14:00N 57°48' E 007°37'510.7
2018-May-28 13:30N 57°48' E 007°47'611.0
2018-May-28 13:00N 57°50' E 007°57'511.0
2018-May-28 12:30N 57°51' E 008°07'510.9
2018-May-28 12:00N 57°52' E 008°17'9810.2
2018-May-28 02:22N 57°45' E 011°20'410.5
2018-May-28 02:00N 57°42' E 011°24'510.7
2018-May-28 01:30N 57°38' E 011°30'510.1
2018-May-28 01:00N 57°35' E 011°38'2 4.4
2018-May-28 00:30N 57°35' E 011°42'0 0.0
2018-May-27 23:57N 57°35' E 011°42'0 0.0
2018-May-27 23:27N 57°35' E 011°42'0 0.0
2018-May-27 22:57N 57°35' E 011°42'0 0.0
2018-May-27 22:18N 57°35' E 011°42'0 0.0
2018-May-27 21:57N 57°35' E 011°42'0 0.0
2018-May-27 21:27N 57°35' E 011°42'0 0.0
2018-May-27 20:57N 57°35' E 011°42'0 0.0
2018-May-27 20:21N 57°35' E 011°42'0 0.1
2018-May-27 19:57N 57°35' E 011°42'0 0.0
2018-May-27 19:09N 57°35' E 011°42'0 0.0
2018-May-27 18:57N 57°35' E 011°42'0 0.0
2018-May-27 18:27N 57°35' E 011°42'0 0.0
2018-May-27 17:57N 57°35' E 011°42'0 0.1
2018-May-27 17:27N 57°35' E 011°42'0 0.0
2018-May-27 16:57N 57°35' E 011°42'0 0.0
2018-May-27 16:30N 57°35' E 011°42'0 0.1
2018-May-27 16:00N 57°35' E 011°42'3 5.8
2018-May-27 15:30N 57°35' E 011°36'5 8.3
2018-May-27 14:52N 57°38' E 011°28'  
Track history (hours):
 
Tides and Currents Weather Stations Pressure Air Temp Water Temp Dewpoint Dewpoint Depression Visibility Wind Speed Wind Dir Waves Ship Positions

Bravo Supporter

Last reported at 2018-Jun-01 20:19 UTC. Time now 2018-Jun-21 16:28 UTC.
Position N 62°47' E 005°31'.
Warning: this ship's position is 19 days out of date.

Length 56 m; draft 4.3 m.

Type: Other ship. MMSI: 236578000.

Date/timePositionNaut miles runAvg speedWind from/ knotsBaromVisibWave heightAir tempDewpointWater temp
2018-Jun-01 20:19N 62°47' E 005°31'310.2
2018-Jun-01 20:00N 62°44' E 005°33'510.2
2018-Jun-01 19:30N 62°39' E 005°35'510.0
2018-Jun-01 19:00N 62°34' E 005°37'5 9.9
2018-Jun-01 18:30N 62°30' E 005°43'510.2
2018-Jun-01 18:00N 62°27' E 005°52'510.5
2018-Jun-01 17:30N 62°27' E 006°04'3 5.4
2018-Jun-01 17:00N 62°28' E 006°09'0 0.5
2018-Jun-01 16:31N 62°28' E 006°09'0 0.0
2018-Jun-01 16:00N 62°28' E 006°09'0 0.0
2018-Jun-01 15:31N 62°28' E 006°09'0 0.0
2018-Jun-01 15:01N 62°28' E 006°09'0 0.0
2018-Jun-01 14:30N 62°28' E 006°09'0 0.0
2018-Jun-01 14:01N 62°28' E 006°09'0 0.0
2018-Jun-01 13:30N 62°28' E 006°09'0 0.0
2018-Jun-01 13:00N 62°28' E 006°09'0 0.0
2018-Jun-01 12:31N 62°28' E 006°09'0 0.0
2018-Jun-01 12:00N 62°28' E 006°09'0 0.0
2018-Jun-01 11:31N 62°28' E 006°09'0 0.0
2018-Jun-01 11:00N 62°28' E 006°09'0 0.0
2018-Jun-01 10:30N 62°28' E 006°09'0 0.0
2018-Jun-01 10:01N 62°28' E 006°09'0 0.0
2018-Jun-01 09:30N 62°28' E 006°09'0 0.0
2018-Jun-01 09:00N 62°28' E 006°09'0 0.0
2018-Jun-01 08:30N 62°28' E 006°09'0 0.0
2018-Jun-01 08:00N 62°28' E 006°09'0 0.0
2018-Jun-01 07:30N 62°28' E 006°09'0 0.0
2018-Jun-01 07:00N 62°28' E 006°09'0 0.0
2018-Jun-01 06:30N 62°28' E 006°09'0 0.0
2018-Jun-01 06:00N 62°28' E 006°09'0 0.0
2018-Jun-01 05:31N 62°28' E 006°09'0 0.0
2018-Jun-01 05:00N 62°28' E 006°09'0 0.0
2018-Jun-01 04:30N 62°28' E 006°09'0 0.0
2018-Jun-01 04:00N 62°28' E 006°09'0 0.0
2018-Jun-01 03:30N 62°28' E 006°09'0 0.0
2018-Jun-01 03:00N 62°28' E 006°09'0 0.0
2018-Jun-01 02:30N 62°28' E 006°09'0 0.0
2018-Jun-01 02:00N 62°28' E 006°09'0 0.0
2018-Jun-01 01:30N 62°28' E 006°09'0 0.0
2018-Jun-01 01:00N 62°28' E 006°09'0 0.0
2018-Jun-01 00:30N 62°28' E 006°09'0 0.0
2018-Jun-01 00:00N 62°28' E 006°09'0 0.0
2018-May-31 23:30N 62°28' E 006°09'0 0.0
2018-May-31 23:00N 62°28' E 006°09'0 0.0
2018-May-31 22:30N 62°28' E 006°09'0 0.0
2018-May-31 22:00N 62°28' E 006°09'0 0.9
2018-May-31 21:30N 62°28' E 006°10'4 7.1
2018-May-31 21:00N 62°27' E 006°03'5 9.6
2018-May-31 20:30N 62°28' E 005°52'5 9.6
2018-May-31 20:00N 62°30' E 005°44'5 9.7
2018-May-31 19:30N 62°34' E 005°36'5 9.8
2018-May-31 19:00N 62°38' E 005°31'5 9.4
2018-May-31 18:30N 62°42' E 005°26'4 0.2
2018-May-30 20:23N 62°46' E 005°27'4 9.6
2018-May-30 20:00N 62°42' E 005°30'5 9.6
2018-May-30 19:30N 62°38' E 005°34'5 9.6
2018-May-30 19:00N 62°33' E 005°37'5 9.6
2018-May-30 18:30N 62°30' E 005°45'510.0
2018-May-30 18:00N 62°27' E 005°53'510.3
2018-May-30 17:30N 62°27' E 006°05'2 4.4
2018-May-30 17:01N 62°28' E 006°09'0 0.3
2018-May-30 16:30N 62°28' E 006°09'0 0.0
2018-May-30 16:00N 62°28' E 006°09'0 0.0
2018-May-30 15:30N 62°28' E 006°09'0 0.0
2018-May-30 15:00N 62°28' E 006°09'0 0.0
2018-May-30 14:30N 62°28' E 006°09'0 0.0
2018-May-30 13:59N 62°28' E 006°09'0 0.0
2018-May-30 13:31N 62°28' E 006°09'0 0.0
2018-May-30 13:01N 62°28' E 006°09'0 0.0
2018-May-30 12:30N 62°28' E 006°09'0 0.0
2018-May-30 12:00N 62°28' E 006°09'0 0.0
2018-May-30 11:30N 62°28' E 006°09'0 0.0
2018-May-30 11:01N 62°28' E 006°09'0 0.0
2018-May-30 10:30N 62°28' E 006°09'0 0.0
2018-May-30 10:00N 62°28' E 006°09'0 0.0
2018-May-30 09:31N 62°28' E 006°09'0 0.0
2018-May-30 09:00N 62°28' E 006°09'0 0.0
2018-May-30 08:31N 62°28' E 006°09'0 0.0
2018-May-30 08:00N 62°28' E 006°09'0 0.0
2018-May-30 07:30N 62°28' E 006°09'1 1.9
2018-May-30 07:00N 62°27' E 006°10'5 9.4
2018-May-30 06:30N 62°27' E 006°00'5 9.0
2018-May-30 06:00N 62°28' E 005°51'5 9.4
2018-May-30 05:30N 62°30' E 005°42'4 8.4
2018-May-30 04:59N 62°31' E 005°33'4 8.6
2018-May-30 04:30N 62°29' E 005°25'4 8.7
2018-May-30 04:00N 62°26' E 005°18'4 8.7
2018-May-30 03:30N 62°24' E 005°10'4 8.3
2018-May-30 03:00N 62°22' E 005°02'4 8.2
2018-May-30 02:30N 62°19' E 004°55'4 7.7
2018-May-30 01:59N 62°17' E 004°48'4 7.2
2018-May-30 01:29N 62°16' E 004°41'6 6.6
2018-May-30 00:37N 62°12' E 004°31'1 7.2
2018-May-30 00:29N 62°11' E 004°30'211 8.7
2018-May-29 00:20N 58°41' E 004°51'12 9.4
2018-May-28 23:03N 58°32' E 005°06'0 8.5
2018-May-28 23:00N 58°31' E 005°07'10 9.8
2018-May-28 22:02N 58°24' E 005°19'010.0
2018-May-28 22:00N 58°24' E 005°19'510.2
2018-May-28 21:28N 58°20' E 005°27'510.2
2018-May-28 20:59N 58°17' E 005°34'510.4
2018-May-28 20:30N 58°14' E 005°41'510.5
2018-May-28 20:00N 58°11' E 005°49'510.5
2018-May-28 19:30N 58°08' E 005°57'510.4
2018-May-28 19:00N 58°04' E 006°04'510.3
2018-May-28 18:30N 58°01' E 006°12'510.7
2018-May-28 18:00N 57°57' E 006°19'611.1
2018-May-28 17:30N 57°54' E 006°27'610.9
2018-May-28 16:58N 57°51' E 006°36'511.0
2018-May-28 16:30N 57°50' E 006°46'510.8
2018-May-28 16:00N 57°49' E 006°56'510.7
2018-May-28 15:30N 57°49' E 007°06'510.9
2018-May-28 15:00N 57°48' E 007°16'611.0
2018-May-28 14:29N 57°48' E 007°27'511.0
2018-May-28 14:00N 57°48' E 007°37'510.7
2018-May-28 13:30N 57°48' E 007°47'611.0
2018-May-28 13:00N 57°50' E 007°57'511.0
2018-May-28 12:30N 57°51' E 008°07'510.9
2018-May-28 12:00N 57°52' E 008°17'9810.2
2018-May-28 02:22N 57°45' E 011°20'410.5
2018-May-28 02:00N 57°42' E 011°24'510.7
2018-May-28 01:30N 57°38' E 011°30'510.1
2018-May-28 01:00N 57°35' E 011°38'2 4.4
2018-May-28 00:30N 57°35' E 011°42'0 0.0
2018-May-27 23:57N 57°35' E 011°42'0 0.0
2018-May-27 23:27N 57°35' E 011°42'0 0.0
2018-May-27 22:57N 57°35' E 011°42'0 0.0
2018-May-27 22:18N 57°35' E 011°42'0 0.0
2018-May-27 21:57N 57°35' E 011°42'0 0.0
2018-May-27 21:27N 57°35' E 011°42'0 0.0
2018-May-27 20:57N 57°35' E 011°42'0 0.0
2018-May-27 20:21N 57°35' E 011°42'0 0.1
2018-May-27 19:57N 57°35' E 011°42'0 0.0
2018-May-27 19:09N 57°35' E 011°42'0 0.0
2018-May-27 18:57N 57°35' E 011°42'0 0.0
2018-May-27 18:27N 57°35' E 011°42'0 0.0
2018-May-27 17:57N 57°35' E 011°42'0 0.1
2018-May-27 17:27N 57°35' E 011°42'0 0.0
2018-May-27 16:57N 57°35' E 011°42'0 0.0
2018-May-27 16:30N 57°35' E 011°42'0 0.1
2018-May-27 16:00N 57°35' E 011°42'3 5.8
2018-May-27 15:30N 57°35' E 011°36'5 8.3
2018-May-27 14:52N 57°38' E 011°28'  

Dump ship's entire track history